Time;durP1;ratioP1;P1;durP2;ratioP2;P2;SDS_P1;SDS_P2;PMS_P1;PMS_P2;Temp;Humidity;BMP_temperature;BMP_pressure;BME280_temperature;BME280_humidity;BME280_pressure;Samples;Min_cycle;Max_cycle;Signal;HPM_P1;HPM_P2
2024/03/03 00:04:40;;;;;;;;;;;;;;;18.26;42.98;98181.56;10251479;28;843;-70
2024/03/03 00:09:36;;;;;;;;;;;;;;;18.23;43.01;98176.50;10251060;28;1944;-70
2024/03/03 00:14:34;;;;;;;;;;;;;;;18.22;43.15;98159.84;10250676;28;967;-70
2024/03/03 00:19:29;;;;;;;;;;;;;;;18.20;42.83;98159.09;10250823;28;906;-70
2024/03/03 00:24:25;;;;;;;;;;;;;;;18.18;43.01;98153.94;10250298;28;980;-70
2024/03/03 00:29:21;;;;;;;;;;;;;;;18.16;43.07;98150.56;10250046;28;1955;-70
2024/03/03 00:34:17;;;;;;;;;;;;;;;18.14;43.07;98149.81;10249733;28;886;-70
2024/03/03 00:39:13;;;;;;;;;;;;;;;18.12;43.09;98141.16;10249540;28;906;-70
2024/03/03 00:44:09;;;;;;;;;;;;;;;18.11;43.14;98142.13;10250066;28;886;-72
2024/03/03 00:49:05;;;;;;;;;;;;;;;18.09;43.14;98128.22;10248643;28;1890;-72
2024/03/03 00:54:01;;;;;;;;;;;;;;;18.08;43.26;98125.69;10249397;28;839;-72
2024/03/03 00:58:56;;;;;;;;;;;;;;;18.06;43.16;98111.78;10248787;28;807;-72
2024/03/03 01:03:52;;;;;;;;;;;;;;;18.06;43.05;98106.50;10248616;28;775;-72
2024/03/03 01:08:48;;;;;;;;;;;;;;;18.02;43.00;98083.94;10249948;28;1890;-72
2024/03/03 01:13:44;;;;;;;;;;;;;;;18.01;42.88;98084.88;10248856;28;830;-72
2024/03/03 01:18:40;;;;;;;;;;;;;;;17.99;43.10;98084.97;10248162;28;882;-72
2024/03/03 01:23:36;;;;;;;;;;;;;;;17.99;43.17;98089.41;10247802;28;921;-72
2024/03/03 01:28:32;;;;;;;;;;;;;;;17.96;43.23;98082.56;10247626;28;1960;-72
2024/03/03 01:33:28;;;;;;;;;;;;;;;17.94;43.09;98085.31;10248120;28;769;-72
2024/03/03 01:38:24;;;;;;;;;;;;;;;17.93;43.12;98072.25;10247305;28;795;-72
2024/03/03 01:43:20;;;;;;;;;;;;;;;17.91;43.27;98071.50;10247697;28;862;-72
2024/03/03 01:48:16;;;;;;;;;;;;;;;17.90;43.15;98081.22;10246479;28;1938;-72
2024/03/03 01:53:12;;;;;;;;;;;;;;;17.88;43.23;98088.38;10246718;28;799;-72
2024/03/03 01:58:08;;;;;;;;;;;;;;;17.86;43.06;98092.06;10246740;28;871;-72
2024/03/03 02:03:05;;;;;;;;;;;;;;;17.85;43.18;98088.59;10246876;28;966;-72
2024/03/03 02:08:01;;;;;;;;;;;;;;;17.84;43.22;98096.59;10244669;28;1898;-72
2024/03/03 02:12:57;;;;;;;;;;;;;;;17.82;43.17;98083.53;10244183;28;862;-72
2024/03/03 02:17:53;;;;;;;;;;;;;;;17.81;43.27;98083.63;10244407;28;858;-72
2024/03/03 02:22:49;;;;;;;;;;;;;;;17.80;43.27;98077.53;10244535;28;872;-72
2024/03/03 02:27:44;;;;;;;;;;;;;;;17.79;43.12;98080.22;10243134;28;1958;-72
2024/03/03 02:32:40;;;;;;;;;;;;;;;17.78;43.24;98083.81;10244249;28;862;-72
2024/03/03 02:37:36;;;;;;;;;;;;;;;17.75;43.17;98071.69;10243439;28;990;-72
2024/03/03 02:42:32;;;;;;;;;;;;;;;17.74;43.20;98076.13;10243408;28;980;-72
2024/03/03 02:47:28;;;;;;;;;;;;;;;17.72;43.27;98088.56;10243916;28;1890;-72
2024/03/03 02:52:24;;;;;;;;;;;;;;;17.72;43.30;98074.56;10243652;28;863;-72
2024/03/03 02:57:20;;;;;;;;;;;;;;;17.71;43.23;98075.50;10242980;28;945;-72
2024/03/03 03:02:15;;;;;;;;;;;;;;;17.70;43.33;98073.81;10242793;28;830;-72
2024/03/03 03:07:12;;;;;;;;;;;;;;;17.67;43.42;98066.97;10204421;28;1109572;-72
2024/03/03 03:12:08;;;;;;;;;;;;;;;17.66;43.28;98067.94;10244101;28;1066;-72
2024/03/03 03:17:04;;;;;;;;;;;;;;;17.66;43.34;98056.56;10242286;28;907;-72
2024/03/03 03:22:00;;;;;;;;;;;;;;;17.65;43.32;98057.47;10243933;28;893;-72
2024/03/03 03:26:56;;;;;;;;;;;;;;;17.63;43.50;98060.25;10243711;28;1973;-72
2024/03/03 03:31:52;;;;;;;;;;;;;;;17.63;43.50;98054.09;10243772;28;778;-72
2024/03/03 03:36:48;;;;;;;;;;;;;;;17.62;43.22;98058.53;10243655;28;842;-72
2024/03/03 03:41:44;;;;;;;;;;;;;;;17.60;43.28;98067.50;10243590;28;851;-72
2024/03/03 03:46:40;;;;;;;;;;;;;;;17.58;43.31;98054.44;10243848;28;1901;-73
2024/03/03 03:51:36;;;;;;;;;;;;;;;17.56;43.48;98056.34;10243383;28;788;-72
2024/03/03 03:56:32;;;;;;;;;;;;;;;17.56;43.29;98064.25;10243276;28;910;-72
2024/03/03 04:01:28;;;;;;;;;;;;;;;17.54;43.41;98047.69;10243854;28;902;-72
2024/03/03 04:06:24;;;;;;;;;;;;;;;17.53;43.23;98040.75;10243403;28;1890;-72
2024/03/03 04:11:20;;;;;;;;;;;;;;;17.51;43.24;98048.75;10243003;28;902;-72
2024/03/03 04:16:16;;;;;;;;;;;;;;;17.51;43.48;98047.91;10242356;28;842;-70
2024/03/03 04:21:11;;;;;;;;;;;;;;;17.49;43.29;98057.69;10242750;28;799;-70
2024/03/03 04:26:07;;;;;;;;;;;;;;;17.49;43.32;98060.34;10243285;28;1922;-70
2024/03/03 04:31:05;;;;;;;;;;;;;;;17.50;43.28;98067.28;10247810;28;810;-72
2024/03/03 04:36:01;;;;;;;;;;;;;;;17.50;43.44;98051.47;10250378;28;892;-72
2024/03/03 04:40:57;;;;;;;;;;;;;;;17.50;43.55;98054.09;10249590;28;866;-72
2024/03/03 04:45:53;;;;;;;;;;;;;;;17.51;43.42;98068.97;10249431;28;827;-72
2024/03/03 04:50:48;;;;;;;;;;;;;;;17.51;43.44;98084.78;10249233;28;1949;-70
2024/03/03 04:55:44;;;;;;;;;;;;;;;17.52;43.41;98097.84;10248911;28;910;-70
2024/03/03 05:00:40;;;;;;;;;;;;;;;17.52;43.24;98091.72;10248901;28;957;-70
2024/03/03 05:05:36;;;;;;;;;;;;;;;17.57;43.39;98089.63;10249196;28;803;-70
2024/03/03 05:10:32;;;;;;;;;;;;;;;17.58;43.36;98093.97;10248925;28;1902;-70
2024/03/03 05:15:28;;;;;;;;;;;;;;;17.61;43.37;98101.66;10248246;28;887;-70
2024/03/03 05:20:24;;;;;;;;;;;;;;;17.63;43.44;98102.41;10248509;28;858;-72
2024/03/03 05:25:19;;;;;;;;;;;;;;;17.65;43.35;98092.56;10248472;28;803;-72
2024/03/03 05:30:15;;;;;;;;;;;;;;;17.68;43.57;98092.38;10247628;28;1910;-72
2024/03/03 05:35:12;;;;;;;;;;;;;;;17.70;43.49;98105.44;10248410;28;949;-72
2024/03/03 05:40:08;;;;;;;;;;;;;;;17.72;43.23;98122.00;10246696;28;810;-72
2024/03/03 05:45:05;;;;;;;;;;;;;;;17.74;43.44;98126.22;10247832;28;862;-72
2024/03/03 05:50:01;;;;;;;;;;;;;;;17.78;43.42;98123.34;10246773;28;1951;-72
2024/03/03 05:54:57;;;;;;;;;;;;;;;17.78;43.22;98124.19;10246741;28;823;-72
2024/03/03 05:59:53;;;;;;;;;;;;;;;17.80;43.48;98138.16;10246528;28;847;-72
2024/03/03 06:04:49;;;;;;;;;;;;;;;17.83;43.23;98142.38;10246968;28;775;-72
2024/03/03 06:09:45;;;;;;;;;;;;;;;17.83;43.28;98143.19;10246667;28;1918;-72
2024/03/03 06:14:41;;;;;;;;;;;;;;;17.87;43.44;98141.22;10245351;28;894;-72
2024/03/03 06:19:37;;;;;;;;;;;;;;;17.87;43.20;98146.50;10245665;28;886;-73
2024/03/03 06:24:33;;;;;;;;;;;;;;;17.90;43.34;98155.00;10245653;28;958;-72
2024/03/03 06:29:28;;;;;;;;;;;;;;;17.92;43.37;98152.25;10245369;28;1961;-72
2024/03/03 06:34:24;;;;;;;;;;;;;;;17.93;43.30;98146.88;10245288;28;818;-72
2024/03/03 06:39:20;;;;;;;;;;;;;;;17.95;43.28;98146.78;10245095;28;872;-72
2024/03/03 06:44:16;;;;;;;;;;;;;;;17.96;43.41;98157.22;10244539;28;902;-72
2024/03/03 06:49:12;;;;;;;;;;;;;;;17.99;43.44;98166.72;10244684;28;1874;-73
2024/03/03 06:54:08;;;;;;;;;;;;;;;18.00;43.36;98162.28;10253090;28;1122;-72
2024/03/03 06:59:04;;;;;;;;;;;;;;;18.02;43.27;98160.38;10284568;28;937;-72
2024/03/03 07:04:13;;;;;;;;;;;;;;;18.02;43.28;98155.09;10283658;28;842;-70
2024/03/03 07:09:09;;;;;;;;;;;;;;;18.03;43.31;98160.28;10284283;28;1914;-72
2024/03/03 07:14:05;;;;;;;;;;;;;;;18.04;43.38;98154.06;10284830;28;909;-72
2024/03/03 07:19:01;;;;;;;;;;;;;;;18.06;43.32;98160.06;10284272;28;746;-73
2024/03/03 07:23:57;;;;;;;;;;;;;;;18.06;43.34;98160.06;10284343;28;791;-73
2024/03/03 07:28:53;;;;;;;;;;;;;;;18.07;43.52;98151.19;10283798;28;1902;-73
2024/03/03 07:33:49;;;;;;;;;;;;;;;18.08;43.39;98152.91;10283801;28;868;-70
2024/03/03 07:38:45;;;;;;;;;;;;;;;18.09;43.36;98157.22;10283659;28;812;-70
2024/03/03 07:43:41;;;;;;;;;;;;;;;18.11;43.44;98157.13;10284396;28;811;-70
2024/03/03 07:48:36;;;;;;;;;;;;;;;18.12;43.20;98162.25;10282769;28;1902;-70
2024/03/03 07:53:32;;;;;;;;;;;;;;;18.13;43.40;98168.38;10283423;28;903;-72
2024/03/03 07:58:28;;;;;;;;;;;;;;;18.15;43.18;98182.31;10283332;28;767;-73
2024/03/03 08:03:24;;;;;;;;;;;;;;;18.16;43.37;98181.38;10284734;28;906;-72
2024/03/03 08:08:20;;;;;;;;;;;;;;;18.16;43.37;98174.28;10290346;28;1910;-72
2024/03/03 08:13:16;;;;;;;;;;;;;;;18.18;43.35;98172.41;10291007;28;763;-72
2024/03/03 08:18:12;;;;;;;;;;;;;;;18.20;43.41;98166.16;10291710;28;845;-73
2024/03/03 08:23:07;;;;;;;;;;;;;;;18.21;43.50;98159.94;10290875;28;791;-72
2024/03/03 08:28:05;;;;;;;;;;;;;;;18.22;43.41;98186.22;10290900;28;1898;-72
2024/03/03 08:33:01;;;;;;;;;;;;;;;18.22;43.52;98180.94;10290707;28;857;-74
2024/03/03 08:37:59;;;;;;;;;;;;;;;18.24;43.30;98173.75;10290232;28;869;-72
2024/03/03 08:42:55;;;;;;;;;;;;;;;18.24;43.58;98171.13;10289956;28;802;-72
2024/03/03 08:47:50;;;;;;;;;;;;;;;18.25;43.44;98164.06;10289225;28;1977;-73
2024/03/03 08:52:46;;;;;;;;;;;;;;;18.27;43.52;98163.00;10289758;28;839;-72
2024/03/03 08:57:42;;;;;;;;;;;;;;;18.26;43.65;98161.31;10289060;28;1280;-71
2024/03/03 09:02:38;;;;;;;;;;;;;;;18.27;43.52;98159.53;10289686;28;962;-72
2024/03/03 09:07:34;;;;;;;;;;;;;;;18.29;43.72;98170.81;10289074;28;1973;-71
2024/03/03 09:12:30;;;;;;;;;;;;;;;18.30;43.49;98173.31;10288826;28;905;-71
2024/03/03 09:17:26;;;;;;;;;;;;;;;18.30;43.38;98178.59;10288598;28;795;-72
2024/03/03 09:22:22;;;;;;;;;;;;;;;18.29;43.43;98169.00;10288270;28;889;-72
2024/03/03 09:27:18;;;;;;;;;;;;;;;18.32;43.63;98173.22;10288182;28;1894;-73
2024/03/03 09:32:13;;;;;;;;;;;;;;;18.33;43.52;98167.81;10287995;28;779;-72
2024/03/03 09:37:09;;;;;;;;;;;;;;;18.33;43.50;98173.09;10288017;28;878;-72
2024/03/03 09:42:05;;;;;;;;;;;;;;;18.35;43.60;98175.66;10286729;28;1012;-72
2024/03/03 09:47:01;;;;;;;;;;;;;;;18.35;43.67;98180.91;10285022;28;1945;-72
2024/03/03 09:51:58;;;;;;;;;;;;;;;18.35;43.67;98173.84;10286511;28;900;-73
2024/03/03 09:56:53;;;;;;;;;;;;;;;18.36;43.64;98172.88;10286804;28;846;-72
2024/03/03 10:01:55;;;;;;;;;;;;;;;18.37;43.47;98174.59;10286350;28;843;-72
2024/03/03 10:06:51;;;;;;;;;;;;;;;18.38;43.86;98172.78;10286202;28;1906;-72
2024/03/03 10:11:47;;;;;;;;;;;;;;;18.39;43.57;98156.84;10286712;28;1116;-70
2024/03/03 10:16:42;;;;;;;;;;;;;;;18.39;43.56;98156.00;10286093;28;892;-69
2024/03/03 10:21:38;;;;;;;;;;;;;;;18.41;43.71;98159.38;10285454;28;826;-70
2024/03/03 10:26:35;;;;;;;;;;;;;;;18.43;43.62;98149.56;10285765;28;1890;-68
2024/03/03 10:31:30;;;;;;;;;;;;;;;18.44;43.66;98151.22;10284153;28;1753;-69
2024/03/03 10:36:28;;;;;;;;;;;;;;;18.44;43.41;98145.97;10285692;28;817;-70
2024/03/03 10:41:24;;;;;;;;;;;;;;;18.47;43.67;98144.91;10285220;28;841;-70
2024/03/03 10:46:20;;;;;;;;;;;;;;;18.47;43.58;98137.84;10284717;28;1899;-69
2024/03/03 10:51:17;;;;;;;;;;;;;;;18.47;43.81;98143.13;10284717;28;791;-70
2024/03/03 10:56:13;;;;;;;;;;;;;;;18.47;43.67;98143.13;10284861;28;886;-70
2024/03/03 11:01:09;;;;;;;;;;;;;;;18.50;43.66;98144.69;10285163;28;885;-72
2024/03/03 11:06:05;;;;;;;;;;;;;;;18.52;43.58;98137.50;10283851;28;1144;-71
2024/03/03 11:11:01;;;;;;;;;;;;;;;18.52;43.85;98134.84;10284210;28;1934;-72
2024/03/03 11:15:57;;;;;;;;;;;;;;;18.53;43.47;98139.19;10284353;28;898;-72
2024/03/03 11:20:54;;;;;;;;;;;;;;;18.54;43.58;98133.78;10284291;28;906;-72
2024/03/03 11:25:50;;;;;;;;;;;;;;;18.55;43.60;98130.22;10284090;28;806;-72
2024/03/03 11:30:46;;;;;;;;;;;;;;;18.56;43.67;98128.41;10284080;28;1898;-73
2024/03/03 11:35:42;;;;;;;;;;;;;;;18.57;43.67;98125.66;10284004;28;945;-72
2024/03/03 11:40:38;;;;;;;;;;;;;;;18.58;43.71;98115.97;10288442;28;794;-72
2024/03/03 11:45:34;;;;;;;;;;;;;;;18.59;43.81;98112.34;10292080;28;850;-72
2024/03/03 11:50:30;;;;;;;;;;;;;;;18.60;43.87;98112.25;10291845;28;1957;-70
2024/03/03 11:55:27;;;;;;;;;;;;;;;18.61;43.63;98100.75;10291798;28;869;-71
2024/03/03 12:00:24;;;;;;;;;;;;;;;18.62;43.85;98099.78;10292379;28;853;-72
2024/03/03 12:05:20;;;;;;;;;;;;;;;18.62;43.72;98094.50;10291905;28;885;-72
2024/03/03 12:10:16;;;;;;;;;;;;;;;18.63;43.86;98095.38;10290767;28;1902;-72
2024/03/03 12:15:12;;;;;;;;;;;;;;;18.66;43.83;98086.38;10290908;28;882;-72
2024/03/03 12:20:09;;;;;;;;;;;;;;;18.67;43.83;98085.41;10291466;28;786;-70
2024/03/03 12:25:05;;;;;;;;;;;;;;;18.69;43.71;98078.22;10288225;28;1169;-69
2024/03/03 12:30:03;;;;;;;;;;;;;;;18.69;43.64;98067.69;10289986;28;1893;-70
2024/03/03 12:34:59;;;;;;;;;;;;;;;18.71;43.77;98073.69;10290256;28;948;-69
2024/03/03 12:39:56;;;;;;;;;;;;;;;18.73;43.69;98069.97;10290897;28;799;-69
2024/03/03 12:44:52;;;;;;;;;;;;;;;18.77;43.83;98071.47;10289790;28;941;-69
2024/03/03 12:49:48;;;;;;;;;;;;;;;18.79;43.73;98069.56;10289902;28;1906;-69
2024/03/03 12:54:44;;;;;;;;;;;;;;;18.81;43.76;98066.78;10289517;28;869;-70
2024/03/03 12:59:40;;;;;;;;;;;;;;;18.86;43.74;98066.44;10289204;28;874;-69
2024/03/03 13:04:36;;;;;;;;;;;;;;;18.90;43.71;98063.47;10289132;28;837;-70
2024/03/03 13:09:32;;;;;;;;;;;;;;;18.93;43.59;98055.31;10288922;28;1980;-69
2024/03/03 13:14:28;;;;;;;;;;;;;;;18.98;43.73;98058.47;10289301;28;862;-69
2024/03/03 13:19:24;;;;;;;;;;;;;;;18.98;43.47;98058.47;10288577;28;756;-69
2024/03/03 13:24:20;;;;;;;;;;;;;;;19.04;43.38;98063.25;10288285;28;822;-70
2024/03/03 13:29:16;;;;;;;;;;;;;;;19.10;43.22;98054.06;10287476;28;1952;-72
2024/03/03 13:34:11;;;;;;;;;;;;;;;19.15;43.47;98054.56;10288570;28;950;-72
2024/03/03 13:39:08;;;;;;;;;;;;;;;19.22;43.15;98057.56;10288667;28;803;-72
2024/03/03 13:44:05;;;;;;;;;;;;;;;19.28;43.23;98043.88;10288157;28;844;-72
2024/03/03 13:49:01;;;;;;;;;;;;;;;19.32;43.03;98049.78;10287330;28;1906;-72
2024/03/03 13:53:57;;;;;;;;;;;;;;;19.40;43.16;98053.50;10287228;28;868;-70
2024/03/03 13:58:53;;;;;;;;;;;;;;;19.43;43.02;98055.91;10286947;28;862;-70
2024/03/03 14:03:49;;;;;;;;;;;;;;;19.45;43.07;98053.16;10286688;28;849;-70
2024/03/03 14:08:45;;;;;;;;;;;;;;;19.56;42.90;98052.34;10287491;28;1922;-70
2024/03/03 14:13:41;;;;;;;;;;;;;;;19.63;42.90;98058.84;10286418;28;791;-70
2024/03/03 14:18:36;;;;;;;;;;;;;;;19.69;42.88;98056.56;10286742;28;830;-70
2024/03/03 14:23:32;;;;;;;;;;;;;;;19.74;42.77;98056.22;10285988;28;770;-70
2024/03/03 14:28:28;;;;;;;;;;;;;;;19.77;42.84;98055.97;10286491;28;1957;-70
2024/03/03 14:33:24;;;;;;;;;;;;;;;19.80;42.79;98047.78;10285664;28;818;-70
2024/03/03 14:38:20;;;;;;;;;;;;;;;19.87;42.65;98053.47;10286095;28;773;-70
2024/03/03 14:43:16;;;;;;;;;;;;;;;19.91;42.79;98052.25;10285354;28;783;-70
2024/03/03 14:48:12;;;;;;;;;;;;;;;19.95;42.63;98058.97;10284392;28;1894;-70
2024/03/03 14:53:07;;;;;;;;;;;;;;;19.95;42.76;98058.97;10285646;28;885;-70
2024/03/03 14:58:03;;;;;;;;;;;;;;;19.99;42.52;98063.06;10284916;28;963;-70
2024/03/03 15:02:59;;;;;;;;;;;;;;;20.00;42.49;98064.75;10284665;28;888;-70
2024/03/03 15:07:55;;;;;;;;;;;;;;;20.02;42.78;98068.13;10284634;28;1981;-71
2024/03/03 15:12:51;;;;;;;;;;;;;;;20.04;42.63;98062.69;10284022;28;818;-70
2024/03/03 15:17:47;;;;;;;;;;;;;;;20.02;42.56;98062.81;10284618;28;755;-70
2024/03/03 15:22:43;;;;;;;;;;;;;;;19.97;42.87;98072.09;10284506;28;751;-70
2024/03/03 15:27:39;;;;;;;;;;;;;;;19.89;42.85;98077.97;10284285;28;2034;-71
2024/03/03 15:32:35;;;;;;;;;;;;;;;19.87;42.90;98083.38;10284746;28;906;-70
2024/03/03 15:37:31;;;;;;;;;;;;;;;19.87;42.99;98088.66;10283928;28;928;-71
2024/03/03 15:42:27;;;;;;;;;;;;;;;19.83;43.05;98091.66;10283397;28;1091;-71
2024/03/03 15:47:24;;;;;;;;;;;;;;;19.81;42.89;98094.44;10283908;28;1960;-71
2024/03/03 15:52:20;;;;;;;;;;;;;;;19.85;42.85;98095.88;10283708;28;885;-73
2024/03/03 15:57:16;;;;;;;;;;;;;;;19.76;42.97;98096.59;10283903;28;876;-71
2024/03/03 16:02:12;;;;;;;;;;;;;;;19.73;43.16;98101.25;10283772;28;867;-70
2024/03/03 16:07:08;;;;;;;;;;;;;;;19.69;43.17;98103.31;10283574;28;1914;-70
2024/03/03 16:12:04;;;;;;;;;;;;;;;19.66;42.97;98103.53;10284178;28;886;-70
2024/03/03 16:17:00;;;;;;;;;;;;;;;19.63;43.05;98104.59;10284088;28;831;-70
2024/03/03 16:21:56;;;;;;;;;;;;;;;19.60;43.11;98107.50;10283406;28;937;-70
2024/03/03 16:26:52;;;;;;;;;;;;;;;19.58;43.20;98112.03;10288877;28;1966;-70
2024/03/03 16:31:48;;;;;;;;;;;;;;;19.55;43.08;98114.09;10291265;28;834;-74
2024/03/03 16:36:44;;;;;;;;;;;;;;;19.53;43.35;98121.28;10290471;28;810;-72
2024/03/03 16:41:40;;;;;;;;;;;;;;;19.50;43.25;98122.38;10290250;28;882;-71
2024/03/03 16:46:36;;;;;;;;;;;;;;;19.49;43.31;98123.31;10290341;28;1901;-70
2024/03/03 16:51:32;;;;;;;;;;;;;;;19.48;43.26;98129.56;10290258;28;815;-70
2024/03/03 16:56:27;;;;;;;;;;;;;;;19.47;43.29;98143.75;10290205;28;870;-70
2024/03/03 17:01:24;;;;;;;;;;;;;;;19.45;43.28;98151.78;10289209;28;803;-69
2024/03/03 17:06:19;;;;;;;;;;;;;;;19.44;43.29;98151.88;10288303;28;1241;-70
2024/03/03 17:11:15;;;;;;;;;;;;;;;19.43;43.30;98164.25;10288306;28;1906;-70
2024/03/03 17:16:12;;;;;;;;;;;;;;;19.42;43.38;98172.31;10289268;28;814;-73
2024/03/03 17:21:08;;;;;;;;;;;;;;;19.41;43.34;98182.03;10289113;28;876;-70
2024/03/03 17:26:04;;;;;;;;;;;;;;;19.40;43.35;98185.63;10289170;28;878;-70
2024/03/03 17:31:00;;;;;;;;;;;;;;;19.41;43.50;98186.47;10288657;28;1894;-70
2024/03/03 17:35:56;;;;;;;;;;;;;;;19.38;43.19;98203.38;10286759;28;1728;-71
2024/03/03 17:40:52;;;;;;;;;;;;;;;19.39;43.54;98209.53;10288361;28;913;-73
2024/03/03 17:45:48;;;;;;;;;;;;;;;19.39;43.28;98217.47;10287656;28;779;-73
2024/03/03 17:50:44;;;;;;;;;;;;;;;19.38;43.45;98223.69;10287388;28;1903;-73
2024/03/03 17:55:41;;;;;;;;;;;;;;;19.37;43.31;98228.13;10288106;28;830;-73
2024/03/03 18:00:37;;;;;;;;;;;;;;;19.37;43.43;98230.78;10286982;28;969;-73
2024/03/03 18:05:33;;;;;;;;;;;;;;;19.38;43.30;98245.66;10286254;28;879;-73
2024/03/03 18:10:29;;;;;;;;;;;;;;;19.37;43.39;98246.63;10287164;28;1902;-71
2024/03/03 18:15:25;;;;;;;;;;;;;;;19.38;43.38;98256.22;10286405;28;944;-71
2024/03/03 18:20:21;;;;;;;;;;;;;;;19.37;43.44;98261.63;10286233;28;803;-71
2024/03/03 18:25:17;;;;;;;;;;;;;;;19.37;43.54;98259.84;10286068;28;890;-73
2024/03/03 18:30:13;;;;;;;;;;;;;;;19.38;43.40;98269.44;10285191;28;1894;-73
2024/03/03 18:35:09;;;;;;;;;;;;;;;19.38;43.46;98266.78;10285714;28;785;-71
2024/03/03 18:40:05;;;;;;;;;;;;;;;19.38;43.46;98274.72;10285460;28;909;-70
2024/03/03 18:45:00;;;;;;;;;;;;;;;19.39;43.40;98272.94;10285269;28;973;-70
2024/03/03 18:49:57;;;;;;;;;;;;;;;19.40;43.43;98277.25;10284711;28;1960;-71
2024/03/03 18:54:58;;;;;;;;;;;;;;;19.39;43.54;98283.50;10285572;28;957;-70
2024/03/03 18:59:54;;;;;;;;;;;;;;;19.39;43.51;98292.28;10284799;28;953;-72
2024/03/03 19:04:50;;;;;;;;;;;;;;;19.40;43.56;98285.19;10284761;28;720;-73
2024/03/03 19:09:46;;;;;;;;;;;;;;;19.40;43.48;98293.94;10284575;28;1918;-73
2024/03/03 19:14:42;;;;;;;;;;;;;;;19.40;43.45;98296.59;10284438;28;853;-73
2024/03/03 19:19:39;;;;;;;;;;;;;;;19.39;43.43;98297.56;10284345;28;878;-73
2024/03/03 19:24:34;;;;;;;;;;;;;;;19.41;43.36;98311.50;10284880;28;841;-72
2024/03/03 19:29:32;;;;;;;;;;;;;;;19.41;43.28;98306.22;10284070;28;1898;-73
2024/03/03 19:34:28;;;;;;;;;;;;;;;19.42;43.51;98312.34;10284111;28;945;-72
2024/03/03 19:39:24;;;;;;;;;;;;;;;19.42;43.40;98321.13;10284023;28;797;-73
2024/03/03 19:44:20;;;;;;;;;;;;;;;19.43;43.34;98319.31;10283988;28;929;-73
2024/03/03 19:49:17;;;;;;;;;;;;;;;19.43;43.36;98320.16;10284109;28;1937;-72
2024/03/03 19:54:13;;;;;;;;;;;;;;;19.43;43.30;98322.78;10284257;28;868;-73
2024/03/03 19:59:13;;;;;;;;;;;;;;;19.43;43.38;98338.66;10284657;28;810;-73
2024/03/03 20:04:09;;;;;;;;;;;;;;;19.44;43.48;98329.78;10292112;28;814;-73
2024/03/03 20:09:05;;;;;;;;;;;;;;;19.45;43.35;98330.63;10292094;28;1910;-73
2024/03/03 20:14:01;;;;;;;;;;;;;;;19.46;43.46;98332.28;10291915;28;849;-73
2024/03/03 20:18:57;;;;;;;;;;;;;;;19.46;43.25;98349.00;10291535;28;920;-73
2024/03/03 20:23:53;;;;;;;;;;;;;;;19.47;43.24;98347.22;10290948;28;866;-73
2024/03/03 20:28:48;;;;;;;;;;;;;;;19.47;43.30;98350.69;10290498;28;1890;-73
2024/03/03 20:33:44;;;;;;;;;;;;;;;19.47;43.35;98361.25;10291040;28;863;-73
2024/03/03 20:38:41;;;;;;;;;;;;;;;19.47;43.45;98371.84;10290214;28;924;-73
2024/03/03 20:43:37;;;;;;;;;;;;;;;19.46;43.33;98372.78;10290604;28;791;-73
2024/03/03 20:48:33;;;;;;;;;;;;;;;19.46;43.42;98380.69;10290638;28;1949;-73
2024/03/03 20:53:29;;;;;;;;;;;;;;;19.45;43.35;98386.13;10290217;28;934;-73
2024/03/03 20:58:25;;;;;;;;;;;;;;;19.45;43.38;98384.31;10289392;28;882;-73
2024/03/03 21:03:21;;;;;;;;;;;;;;;19.45;43.47;98400.16;10289325;28;876;-73
2024/03/03 21:08:19;;;;;;;;;;;;;;;19.45;43.73;98401.97;10289633;28;1973;-73
2024/03/03 21:13:15;;;;;;;;;;;;;;;19.44;43.29;98393.19;10289196;28;811;-73
2024/03/03 21:18:11;;;;;;;;;;;;;;;19.44;43.51;98397.63;10288768;28;941;-73
2024/03/03 21:23:07;;;;;;;;;;;;;;;19.43;43.48;98393.28;10289311;28;929;-73
2024/03/03 21:28:03;;;;;;;;;;;;;;;19.42;43.44;98397.75;10288435;28;1890;-72
2024/03/03 21:32:59;;;;;;;;;;;;;;;19.43;43.36;98393.28;10289047;28;798;-72
2024/03/03 21:37:55;;;;;;;;;;;;;;;19.42;43.42;98410.13;10288153;28;901;-73
2024/03/03 21:42:51;;;;;;;;;;;;;;;19.41;43.39;98419.84;10288937;28;764;-72
2024/03/03 21:47:47;;;;;;;;;;;;;;;19.40;43.30;98415.50;10288377;28;1889;-72
2024/03/03 21:52:42;;;;;;;;;;;;;;;19.41;43.45;98416.34;10287608;28;882;-72
2024/03/03 21:57:38;;;;;;;;;;;;;;;19.40;43.57;98417.31;10288057;28;937;-72
2024/03/03 22:02:34;;;;;;;;;;;;;;;19.38;43.34;98420.03;10287179;28;935;-72
2024/03/03 22:07:30;;;;;;;;;;;;;;;19.38;43.37;98430.59;10286757;28;1985;-72
2024/03/03 22:12:26;;;;;;;;;;;;;;;19.37;43.53;98430.75;10286934;28;878;-72
2024/03/03 22:17:22;;;;;;;;;;;;;;;19.36;43.57;98431.66;10287261;28;906;-72
2024/03/03 22:22:19;;;;;;;;;;;;;;;19.34;43.44;98439.72;10286395;28;767;-72
2024/03/03 22:27:15;;;;;;;;;;;;;;;19.33;43.56;98438.00;10286184;28;1901;-72
2024/03/03 22:32:11;;;;;;;;;;;;;;;19.32;43.36;98456.63;10286717;28;913;-72
2024/03/03 22:37:07;;;;;;;;;;;;;;;19.30;43.48;98463.81;10285744;28;862;-72
2024/03/03 22:42:04;;;;;;;;;;;;;;;19.30;43.47;98472.59;10285746;28;774;-72
2024/03/03 22:47:00;;;;;;;;;;;;;;;19.28;43.50;98477.13;10285501;28;1898;-72
2024/03/03 22:51:56;;;;;;;;;;;;;;;19.28;43.22;98471.84;10285548;28;893;-72
2024/03/03 22:56:52;;;;;;;;;;;;;;;19.27;43.43;98481.56;10285274;28;779;-72
2024/03/03 23:01:48;;;;;;;;;;;;;;;19.25;43.29;98493.19;10285942;28;857;-72
2024/03/03 23:06:44;;;;;;;;;;;;;;;19.24;43.35;98505.56;10284680;28;1983;-72
2024/03/03 23:11:40;;;;;;;;;;;;;;;19.23;43.44;98510.94;10285547;28;904;-72
2024/03/03 23:16:37;;;;;;;;;;;;;;;19.23;43.38;98511.81;10284748;28;1556;-72
2024/03/03 23:21:33;;;;;;;;;;;;;;;19.22;43.36;98509.25;10284582;28;950;-72
2024/03/03 23:26:29;;;;;;;;;;;;;;;19.21;43.45;98519.00;10285142;28;755;-72
2024/03/03 23:31:25;;;;;;;;;;;;;;;19.21;43.43;98520.78;10284374;28;1951;-72
2024/03/03 23:36:20;;;;;;;;;;;;;;;19.19;43.35;98525.31;10290976;28;961;-72
2024/03/03 23:41:16;;;;;;;;;;;;;;;19.18;43.25;98540.34;10292620;28;902;-72
2024/03/03 23:46:12;;;;;;;;;;;;;;;19.16;43.42;98544.88;10293501;28;854;-72
2024/03/03 23:51:08;;;;;;;;;;;;;;;19.16;43.49;98554.59;10292857;28;1897;-72
2024/03/03 23:56:04;;;;;;;;;;;;;;;19.16;43.22;98568.63;10293097;28;857;-72
